Time;durP1;ratioP1;P1;durP2;ratioP2;P2;SDS_P1;SDS_P2;PMS_P1;PMS_P2;Temp;Humidity;BMP_temperature;BMP_pressure;BME280_temperature;BME280_humidity;BME280_pressure;Samples;Min_cycle;Max_cycle;Signal;HPM_P1;HPM_P2
2023/08/15 00:00:16;;;;;;;8.07;5.20;;;;;;;23.36;66.15;100722.81;679789;29;1172;-79
2023/08/15 00:00:38;;;;;;;6.97;4.90;;;;;;;23.34;66.21;100719.31;678607;29;1569;-79
2023/08/15 00:01:00;;;;;;;7.15;4.75;;;;;;;23.34;66.25;100720.19;676639;29;1066;-79
2023/08/15 00:01:21;;;;;;;6.55;4.60;;;;;;;23.37;66.27;100724.56;674524;29;1391;-79
2023/08/15 00:01:42;;;;;;;7.27;4.90;;;;;;;23.34;66.25;100721.97;674175;29;1846;-79
2023/08/15 00:02:03;;;;;;;6.95;5.00;;;;;;;23.33;66.34;100712.22;682388;28;1565;-79
2023/08/15 00:02:23;;;;;;;6.40;4.70;;;;;;;23.27;66.21;100714.16;682271;29;1153;-79
2023/08/15 00:02:44;;;;;;;6.70;4.68;;;;;;;23.30;66.26;100720.31;685081;28;1142;-79
2023/08/15 00:03:05;;;;;;;7.03;4.80;;;;;;;23.35;66.37;100729.06;681851;29;1177;-79
2023/08/15 00:03:26;;;;;;;7.10;4.83;;;;;;;23.35;66.24;100726.41;685081;28;1251;-79
2023/08/15 00:03:46;;;;;;;7.55;5.00;;;;;;;23.31;66.27;100720.28;682450;28;1042;-79
2023/08/15 00:04:07;;;;;;;9.15;4.70;;;;;;;23.27;66.22;100722.16;684707;28;1468;-79
2023/08/15 00:04:28;;;;;;;10.90;4.80;;;;;;;23.24;66.41;100718.69;679673;28;1294;-79
2023/08/15 00:04:49;;;;;;;12.57;4.90;;;;;;;23.26;66.49;100722.19;682447;29;994;-79
2023/08/15 00:05:09;;;;;;;10.90;4.90;;;;;;;23.27;66.50;100722.16;679417;29;1386;-79
2023/08/15 00:05:49;;;;;;;6.80;4.60;;;;;;;23.22;66.77;100724.03;681677;28;1067;-79
2023/08/15 00:06:09;;;;;;;6.32;4.60;;;;;;;23.21;66.91;100716.97;684729;28;1387;-79
2023/08/15 00:06:30;;;;;;;6.78;4.70;;;;;;;23.24;66.81;100722.22;685029;28;1591;-79
2023/08/15 00:06:51;;;;;;;7.00;4.90;;;;;;;23.17;66.76;100712.63;682347;28;1272;-79
2023/08/15 00:07:11;;;;;;;7.55;5.40;;;;;;;23.25;66.83;100725.75;680516;28;1203;-79
2023/08/15 00:07:32;;;;;;;7.90;5.38;;;;;;;23.20;66.95;100712.56;687742;28;1307;-79
2023/08/15 00:08:11;;;;;;;8.00;5.18;;;;;;;23.17;66.80;100714.44;684922;28;1303;-79
2023/08/15 00:08:54;;;;;;;10.93;5.07;;;;;;;23.18;66.92;100713.53;685038;28;1044;-79
2023/08/15 00:09:15;;;;;;;7.93;5.28;;;;;;;23.22;66.87;100728.47;677138;29;1247;-79
2023/08/15 00:09:36;;;;;;;6.45;5.00;;;;;;;23.20;66.84;100723.22;686209;28;1241;-79
2023/08/15 00:09:57;;;;;;;7.20;5.30;;;;;;;23.16;67.07;100715.34;687666;28;1214;-79
2023/08/15 00:10:17;;;;;;;6.70;4.97;;;;;;;23.11;66.89;100708.34;680148;28;1362;-79
2023/08/15 00:10:38;;;;;;;7.70;5.07;;;;;;;23.18;66.93;100724.16;679648;29;1127;-79
2023/08/15 00:10:58;;;;;;;8.38;5.10;;;;;;;23.16;66.76;100721.53;681614;29;1480;-79
2023/08/15 00:11:20;;;;;;;9.15;5.40;;;;;;;23.12;66.97;100711.91;682016;29;1695;-79
2023/08/15 00:11:41;;;;;;;9.38;5.72;;;;;;;23.07;66.96;100703.16;679298;29;1315;-79
2023/08/15 00:12:02;;;;;;;8.57;5.37;;;;;;;23.13;67.05;100722.47;684899;28;1325;-79
2023/08/15 00:12:22;;;;;;;8.18;5.18;;;;;;;23.09;67.08;100711.97;687489;28;1344;-79
2023/08/15 00:12:43;;;;;;;6.47;4.73;;;;;;;23.08;67.19;100711.09;682208;29;1430;-79
2023/08/15 00:13:04;;;;;;;6.75;4.90;;;;;;;23.10;67.34;100717.25;682491;29;1110;-79
2023/08/15 00:13:24;;;;;;;9.30;5.20;;;;;;;23.10;67.21;100711.03;685168;28;1158;-79
2023/08/15 00:13:45;;;;;;;10.10;5.70;;;;;;;23.07;67.16;100706.69;685362;28;1708;-79
2023/08/15 00:14:06;;;;;;;9.13;5.50;;;;;;;23.09;67.20;100715.50;684085;28;1690;-79
2023/08/15 00:14:27;;;;;;;6.60;5.22;;;;;;;23.09;67.18;100714.63;677691;29;1328;-79
2023/08/15 00:14:56;;;;;;;6.65;5.32;;;;;;;23.09;67.15;100714.63;681441;28;1382;-79
2023/08/15 00:15:18;;;;;;;8.02;5.90;;;;;;;23.05;66.93;100708.50;681865;29;1221;-79
2023/08/15 00:15:39;;;;;;;8.32;5.47;;;;;;;22.99;67.20;100701.56;681893;29;1129;-81
2023/08/15 00:15:59;;;;;;;8.07;5.18;;;;;;;23.01;67.21;100706.84;679924;28;1730;-81
2023/08/15 00:16:20;;;;;;;7.47;4.78;;;;;;;23.06;67.21;100709.38;678955;29;1164;-81
2023/08/15 00:16:42;;;;;;;8.10;5.20;;;;;;;23.02;67.20;100700.59;684777;28;1107;-80
2023/08/15 00:17:03;;;;;;;7.50;5.30;;;;;;;23.06;67.26;100706.72;682241;29;970;-81
2023/08/15 00:17:23;;;;;;;7.57;5.40;;;;;;;23.17;67.18;100717.09;679829;29;1096;-81
2023/08/15 00:17:44;;;;;;;7.07;5.07;;;;;;;23.05;67.09;100707.66;674832;29;1180;-79
2023/08/15 00:18:05;;;;;;;7.70;5.00;;;;;;;23.07;67.20;100709.34;679013;29;1197;-79
2023/08/15 00:18:26;;;;;;;6.93;4.80;;;;;;;23.13;67.27;100716.31;676843;29;1233;-79
2023/08/15 00:18:47;;;;;;;6.93;4.80;;;;;;;23.03;67.15;100706.81;676994;29;1287;-79
2023/08/15 00:19:07;;;;;;;7.65;5.05;;;;;;;23.06;67.21;100709.38;682158;29;1219;-79
2023/08/15 00:19:28;;;;;;;8.32;5.10;;;;;;;23.01;67.28;100705.03;685016;28;1083;-79
2023/08/15 00:19:52;;;;;;;8.55;5.10;;;;;;;23.04;67.09;100706.75;681844;28;1057;-79
2023/08/15 00:20:13;;;;;;;9.65;4.97;;;;;;;23.04;67.20;100709.41;683541;28;1614;-79
2023/08/15 00:20:34;;;;;;;9.73;5.10;;;;;;;22.98;66.94;100698.88;682236;29;1219;-79
2023/08/15 00:20:54;;;;;;;9.98;5.28;;;;;;;22.98;67.29;100699.78;682009;28;1048;-80
2023/08/15 00:21:15;;;;;;;8.33;5.37;;;;;;;23.06;67.19;100714.72;679187;28;1383;-79
2023/08/15 00:21:36;;;;;;;7.72;5.20;;;;;;;23.09;67.28;100719.94;680638;28;1190;-79
2023/08/15 00:21:56;;;;;;;6.68;5.28;;;;;;;23.05;67.37;100712.97;681397;29;1193;-79
2023/08/15 00:22:17;;;;;;;7.35;5.10;;;;;;;23.03;67.17;100712.13;679289;28;1381;-79
2023/08/15 00:22:38;;;;;;;7.40;5.30;;;;;;;23.08;67.29;100724.41;684469;28;1288;-79
2023/08/15 00:22:59;;;;;;;8.45;5.28;;;;;;;23.03;67.19;100715.66;682327;28;1180;-79
2023/08/15 00:23:20;;;;;;;8.95;5.68;;;;;;;23.04;67.42;100716.53;678443;29;1616;-79
2023/08/15 00:23:41;;;;;;;9.10;5.60;;;;;;;23.05;67.39;100720.94;679681;28;1166;-79
2023/08/15 00:24:02;;;;;;;8.40;5.30;;;;;;;23.01;67.45;100713.03;680368;29;1208;-79
2023/08/15 00:24:22;;;;;;;7.90;5.25;;;;;;;22.96;67.33;100706.94;682170;29;977;-79
2023/08/15 00:24:43;;;;;;;9.80;5.17;;;;;;;22.99;67.52;100709.53;682352;28;1177;-80
2023/08/15 00:25:04;;;;;;;9.80;5.40;;;;;;;22.97;67.63;100711.34;682767;28;1258;-79
2023/08/15 00:25:25;;;;;;;9.50;4.90;;;;;;;22.89;67.43;100700.00;682075;28;1353;-79
2023/08/15 00:25:46;;;;;;;8.80;5.00;;;;;;;22.94;67.62;100706.06;676616;29;1256;-79
2023/08/15 00:26:06;;;;;;;8.95;4.82;;;;;;;22.92;67.47;100707.03;676407;29;1227;-79
2023/08/15 00:26:27;;;;;;;7.68;5.00;;;;;;;22.96;67.58;100724.66;677111;29;1124;-79
2023/08/15 00:26:47;;;;;;;7.97;5.20;;;;;;;22.90;67.37;100707.06;679476;29;1146;-79
2023/08/15 00:27:08;;;;;;;8.95;5.55;;;;;;;22.93;67.32;100712.31;679691;29;1084;-79
2023/08/15 00:27:29;;;;;;;9.47;5.60;;;;;;;22.93;67.49;100714.13;679674;29;1179;-79
2023/08/15 00:27:50;;;;;;;7.43;5.03;;;;;;;22.92;67.49;100712.38;676803;29;1431;-79
2023/08/15 00:28:11;;;;;;;6.82;4.82;;;;;;;22.91;67.46;100714.16;677089;29;1090;-79
2023/08/15 00:28:31;;;;;;;7.00;4.90;;;;;;;22.92;67.62;100715.88;676990;29;1930;-79
2023/08/15 00:28:52;;;;;;;10.48;4.70;;;;;;;22.90;67.59;100715.06;676652;29;1875;-79
2023/08/15 00:29:14;;;;;;;10.38;4.80;;;;;;;22.87;67.51;100709.81;682286;29;1213;-79
2023/08/15 00:29:35;;;;;;;9.38;5.10;;;;;;;22.85;67.67;100706.31;682785;28;1331;-79
2023/08/15 00:29:55;;;;;;;8.18;5.50;;;;;;;22.86;67.45;100716.03;676808;29;1720;-80
2023/08/15 00:30:16;;;;;;;8.53;5.27;;;;;;;22.86;67.56;100706.28;677119;29;1046;-79
2023/08/15 00:30:36;;;;;;;8.65;5.22;;;;;;;22.81;67.56;100699.31;679090;29;1045;-79
2023/08/15 00:30:57;;;;;;;9.77;5.38;;;;;;;22.83;67.66;100697.50;681882;29;1445;-79
2023/08/15 00:31:18;;;;;;;9.37;5.30;;;;;;;22.81;67.65;100702.00;682106;28;1587;-79
2023/08/15 00:31:38;;;;;;;9.35;5.40;;;;;;;22.88;67.78;100716.88;681706;28;1266;-79
2023/08/15 00:31:59;;;;;;;8.02;5.28;;;;;;;22.81;67.65;100694.88;679425;29;1418;-79
2023/08/15 00:32:21;;;;;;;8.63;5.70;;;;;;;22.86;67.98;100708.03;685168;28;1323;-79
2023/08/15 00:32:44;;;;;;;9.15;5.75;;;;;;;22.88;68.06;100714.22;683160;28;1373;-79
2023/08/15 00:33:04;;;;;;;8.80;5.72;;;;;;;22.83;67.68;100705.47;684653;28;1574;-79
2023/08/15 00:33:26;;;;;;;8.00;5.35;;;;;;;22.76;67.77;100698.56;687446;28;1221;-79
2023/08/15 00:33:48;;;;;;;7.28;5.25;;;;;;;22.83;67.79;100710.78;682231;29;1131;-79
2023/08/15 00:34:09;;;;;;;7.43;5.17;;;;;;;22.78;67.77;100705.59;682130;29;1504;-79
2023/08/15 00:34:30;;;;;;;7.82;5.13;;;;;;;22.81;67.72;100700.19;684792;28;1397;-79
2023/08/15 00:34:50;;;;;;;7.40;4.90;;;;;;;22.76;68.00;100699.44;684776;28;1129;-79
2023/08/15 00:35:11;;;;;;;7.30;4.80;;;;;;;22.78;67.85;100704.69;682037;29;1410;-79
2023/08/15 00:35:32;;;;;;;7.13;4.77;;;;;;;22.77;67.89;100701.19;684644;28;1124;-79
2023/08/15 00:35:53;;;;;;;8.00;5.22;;;;;;;22.73;67.86;100695.06;684377;28;1144;-79
2023/08/15 00:36:14;;;;;;;8.27;5.40;;;;;;;22.76;67.73;100702.09;684826;28;1779;-79
2023/08/15 00:36:35;;;;;;;7.78;5.40;;;;;;;22.74;68.04;100704.78;682312;28;969;-79
2023/08/15 00:36:55;;;;;;;6.70;5.10;;;;;;;22.73;67.93;100692.41;676672;29;1141;-79
2023/08/15 00:37:16;;;;;;;6.75;5.20;;;;;;;22.70;68.02;100694.25;678995;29;1920;-79
2023/08/15 00:37:37;;;;;;;6.55;5.13;;;;;;;22.76;68.17;100707.41;679660;29;1320;-79
2023/08/15 00:37:58;;;;;;;9.33;5.07;;;;;;;22.70;68.09;100692.47;679261;29;1158;-79
2023/08/15 00:38:18;;;;;;;11.30;5.30;;;;;;;22.72;68.29;100695.97;679744;29;1077;-79
2023/08/15 00:38:39;;;;;;;11.18;5.60;;;;;;;22.71;68.16;100688.03;678973;29;1560;-79
2023/08/15 00:39:02;;;;;;;9.57;5.77;;;;;;;22.68;68.20;100691.63;679740;29;1070;-79
2023/08/15 00:39:23;;;;;;;7.63;5.60;;;;;;;22.64;68.35;100682.00;679493;29;1725;-79
2023/08/15 00:39:43;;;;;;;6.93;5.55;;;;;;;22.68;68.30;100683.66;682303;28;1717;-79
2023/08/15 00:40:05;;;;;;;6.63;5.28;;;;;;;22.66;68.25;100688.16;678030;29;1631;-79
2023/08/15 00:40:25;;;;;;;6.28;4.97;;;;;;;22.63;68.24;100677.59;686055;28;1833;-79
2023/08/15 00:40:46;;;;;;;7.47;5.07;;;;;;;22.67;68.15;100687.22;683799;28;1783;-79
2023/08/15 00:41:07;;;;;;;7.80;4.97;;;;;;;22.62;68.38;100683.78;680459;28;1266;-79
2023/08/15 00:41:29;;;;;;;8.13;5.10;;;;;;;22.69;68.07;100690.72;679034;29;1142;-79
2023/08/15 00:41:50;;;;;;;9.05;5.45;;;;;;;22.64;68.35;100691.75;678853;29;1482;-79
2023/08/15 00:42:11;;;;;;;9.00;5.70;;;;;;;22.62;68.23;100683.78;679578;29;1300;-79
2023/08/15 00:42:31;;;;;;;9.27;5.80;;;;;;;22.62;68.28;100682.94;679649;29;1171;-79
2023/08/15 00:42:52;;;;;;;8.40;5.60;;;;;;;22.58;68.36;100676.81;679305;29;1724;-79
2023/08/15 00:43:17;;;;;;;8.87;5.60;;;;;;;22.64;68.16;100682.00;682127;29;1503;-78
2023/08/15 00:43:38;;;;;;;7.38;5.32;;;;;;;22.63;68.45;100690.88;676536;29;1552;-79
2023/08/15 00:43:59;;;;;;;8.50;5.47;;;;;;;22.60;68.31;100688.28;682131;29;1272;-79
2023/08/15 00:44:20;;;;;;;9.02;5.72;;;;;;;22.60;68.34;100680.31;686458;28;1517;-79
2023/08/15 00:44:43;;;;;;;8.27;5.60;;;;;;;22.60;68.45;100685.63;687420;28;1162;-79
2023/08/15 00:45:04;;;;;;;6.65;5.25;;;;;;;22.56;68.46;100682.16;687203;28;1160;-79
2023/08/15 00:45:26;;;;;;;6.65;5.30;;;;;;;22.57;68.44;100686.56;680109;29;1050;-79
2023/08/15 00:45:47;;;;;;;7.35;5.45;;;;;;;22.60;68.40;100685.63;679048;29;1072;-79
2023/08/15 00:46:08;;;;;;;8.50;5.70;;;;;;;22.57;68.55;100680.38;679436;29;1387;-78
2023/08/15 00:46:30;;;;;;;8.73;5.70;;;;;;;22.60;68.31;100683.84;682225;29;1137;-81
2023/08/15 00:46:51;;;;;;;8.30;5.50;;;;;;;22.53;68.23;100676.03;682081;28;1268;-81
2023/08/15 00:47:13;;;;;;;9.10;5.30;;;;;;;22.61;68.58;100692.69;681940;29;1418;-81
2023/08/15 00:47:34;;;;;;;10.50;5.07;;;;;;;22.56;68.09;100674.19;682046;29;1147;-81
2023/08/15 00:47:55;;;;;;;13.10;5.30;;;;;;;22.64;68.22;100689.97;684691;28;1106;-81
2023/08/15 00:48:16;;;;;;;11.30;5.20;;;;;;;22.57;68.10;100678.59;679602;29;1112;-81
2023/08/15 00:48:37;;;;;;;10.43;5.60;;;;;;;22.56;68.48;100678.66;685003;28;1379;-81
2023/08/15 00:49:00;;;;;;;8.20;5.80;;;;;;;22.59;68.16;100684.78;687347;28;1426;-81
2023/08/15 00:49:21;;;;;;;9.13;5.88;;;;;;;22.66;68.32;100684.59;687433;28;1746;-81
2023/08/15 00:49:43;;;;;;;9.18;5.90;;;;;;;22.60;68.52;100674.97;677029;29;1244;-81
2023/08/15 00:50:07;;;;;;;9.40;5.60;;;;;;;22.63;68.34;100682.91;682214;29;1320;-81
2023/08/15 00:50:30;;;;;;;8.77;5.47;;;;;;;22.60;68.67;100677.66;679419;28;1998;-81
2023/08/15 00:50:51;;;;;;;8.10;5.40;;;;;;;22.59;68.39;100678.56;675969;29;1124;-82
2023/08/15 00:51:12;;;;;;;8.23;5.40;;;;;;;22.54;68.47;100669.81;684902;28;1115;-81
2023/08/15 00:51:33;;;;;;;8.80;5.60;;;;;;;22.53;68.60;100668.94;685494;28;1869;-81
2023/08/15 00:51:54;;;;;;;9.02;5.63;;;;;;;22.54;68.53;100675.13;684868;28;1449;-80
2023/08/15 00:52:15;;;;;;;8.85;5.60;;;;;;;22.51;68.17;100669.91;680133;28;1459;-80
2023/08/15 00:52:37;;;;;;;8.20;5.78;;;;;;;22.54;68.31;100677.78;676849;29;1228;-79
2023/08/15 00:53:00;;;;;;;8.32;5.70;;;;;;;22.54;68.52;100680.44;678664;29;1923;-80
2023/08/15 00:53:21;;;;;;;7.97;5.35;;;;;;;22.45;68.33;100665.59;679481;28;1501;-79
2023/08/15 00:53:42;;;;;;;7.17;4.93;;;;;;;22.51;68.19;100676.09;683945;28;1210;-79
2023/08/15 00:54:04;;;;;;;7.25;5.00;;;;;;;22.55;68.59;100688.41;679787;29;1088;-80
2023/08/15 00:54:25;;;;;;;10.38;5.35;;;;;;;22.48;68.56;100677.97;684544;28;1416;-79
2023/08/15 00:54:48;;;;;;;9.80;5.20;;;;;;;22.42;68.40;100671.84;681849;29;1690;-79
2023/08/15 00:55:10;;;;;;;9.50;5.22;;;;;;;22.52;68.60;100688.47;677026;29;1206;-79
2023/08/15 00:55:32;;;;;;;6.97;5.20;;;;;;;22.45;68.61;100673.56;676973;29;989;-79
2023/08/15 00:55:55;;;;;;;9.55;5.65;;;;;;;22.47;68.54;100677.06;676171;29;1757;-79
2023/08/15 00:56:18;;;;;;;9.90;5.47;;;;;;;22.49;68.79;100687.69;677078;29;1262;-79
2023/08/15 00:56:39;;;;;;;9.02;5.43;;;;;;;22.39;68.62;100671.06;679834;29;1250;-79
2023/08/15 00:57:04;;;;;;;7.97;5.50;;;;;;;22.40;68.81;100671.03;684590;28;1408;-79
2023/08/15 00:57:25;;;;;;;7.35;5.60;;;;;;;22.45;68.57;100681.56;682032;28;1481;-79
2023/08/15 00:57:46;;;;;;;8.00;5.40;;;;;;;22.41;68.90;100674.53;684955;28;1085;-80
2023/08/15 00:58:06;;;;;;;8.02;5.30;;;;;;;22.34;68.99;100676.47;683931;28;1977;-79
2023/08/15 00:58:30;;;;;;;9.95;5.50;;;;;;;22.33;69.05;100677.41;679587;29;1797;-79
2023/08/15 00:58:51;;;;;;;9.90;5.70;;;;;;;22.36;69.03;100684.44;677106;29;1173;-79
2023/08/15 00:59:11;;;;;;;8.97;6.00;;;;;;;22.32;69.23;100679.16;681729;28;1561;-79
2023/08/15 00:59:33;;;;;;;7.88;5.72;;;;;;;22.28;69.09;100674.84;682314;29;1332;-79
2023/08/15 00:59:53;;;;;;;7.30;5.78;;;;;;;22.32;69.02;100684.47;676939;29;1326;-79
2023/08/15 01:00:15;;;;;;;7.15;5.53;;;;;;;22.31;69.12;100684.50;675733;29;1455;-79
2023/08/15 01:00:36;;;;;;;6.93;5.38;;;;;;;22.29;69.26;100681.00;677200;29;1391;-79
2023/08/15 01:00:57;;;;;;;7.57;5.10;;;;;;;22.33;69.03;100693.34;679682;29;1071;-79
2023/08/15 01:01:21;;;;;;;8.18;5.18;;;;;;;22.26;69.11;100681.09;677139;29;1328;-79
2023/08/15 01:01:42;;;;;;;8.15;5.25;;;;;;;22.22;69.12;100679.38;682063;29;1298;-79
2023/08/15 01:02:03;;;;;;;7.80;5.20;;;;;;;22.22;68.98;100684.69;682418;28;1344;-79
2023/08/15 01:02:24;;;;;;;8.60;5.57;;;;;;;22.26;69.35;100686.41;681926;29;1525;-78
2023/08/15 01:02:45;;;;;;;9.33;5.37;;;;;;;22.19;69.20;100678.53;679667;29;1047;-79
2023/08/15 01:03:05;;;;;;;10.13;5.60;;;;;;;22.21;69.09;100682.94;681803;29;1279;-79
2023/08/15 01:03:29;;;;;;;9.02;5.70;;;;;;;22.17;69.23;100676.81;682022;29;1250;-79
2023/08/15 01:03:51;;;;;;;7.50;5.57;;;;;;;22.18;69.27;100673.25;682215;29;1104;-79
2023/08/15 01:04:14;;;;;;;7.20;5.38;;;;;;;22.25;69.59;100690.84;679693;29;1150;-78
2023/08/15 01:04:36;;;;;;;8.88;5.65;;;;;;;22.18;69.36;100675.91;681446;29;1242;-79
2023/08/15 01:04:57;;;;;;;9.20;5.80;;;;;;;22.12;69.67;100674.25;679462;29;1239;-79
2023/08/15 01:05:20;;;;;;;9.00;5.40;;;;;;;22.11;69.65;100674.28;684614;28;1241;-79
2023/08/15 01:05:42;;;;;;;7.75;5.18;;;;;;;22.20;69.65;100692.72;683939;28;1229;-79
2023/08/15 01:06:04;;;;;;;8.07;5.25;;;;;;;22.14;69.63;100684.88;674472;29;1395;-79
2023/08/15 01:06:24;;;;;;;8.60;5.45;;;;;;;22.09;69.68;100671.69;679383;29;1644;-79
2023/08/15 01:06:45;;;;;;;9.52;5.78;;;;;;;22.15;69.67;100681.31;684886;28;1070;-79
2023/08/15 01:07:12;;;;;;;9.27;5.72;;;;;;;22.11;69.78;100676.94;684875;28;1399;-79
2023/08/15 01:07:33;;;;;;;8.13;5.32;;;;;;;22.05;69.62;100673.53;682132;29;1393;-79
2023/08/15 01:07:54;;;;;;;8.43;5.35;;;;;;;22.12;69.62;100687.56;687195;28;1228;-79
2023/08/15 01:08:16;;;;;;;8.75;5.20;;;;;;;22.06;69.76;100677.03;687477;28;1042;-79
2023/08/15 01:08:37;;;;;;;10.00;5.30;;;;;;;22.03;70.02;100674.47;689367;28;1220;-79
2023/08/15 01:08:58;;;;;;;10.50;5.40;;;;;;;22.06;69.93;100682.34;682102;29;1250;-79
2023/08/15 01:09:19;;;;;;;11.45;5.43;;;;;;;22.11;69.97;100690.22;681047;29;1041;-79
2023/08/15 01:09:41;;;;;;;10.82;5.80;;;;;;;22.05;69.85;100677.97;682054;28;1527;-79
2023/08/15 01:10:02;;;;;;;11.02;5.78;;;;;;;22.03;70.19;100677.13;682249;28;1072;-79
2023/08/15 01:10:23;;;;;;;10.70;6.00;;;;;;;22.09;69.82;100684.97;676997;28;1156;-79
2023/08/15 01:10:44;;;;;;;10.13;5.97;;;;;;;22.03;70.22;100685.09;679555;28;1146;-79
2023/08/15 01:11:05;;;;;;;9.77;5.88;;;;;;;22.01;70.02;100678.94;683252;28;1318;-79
2023/08/15 01:11:32;;;;;;;8.55;5.82;;;;;;;22.08;70.16;100685.88;676880;29;1217;-79
2023/08/15 01:12:16;;;;;;;8.20;5.80;;;;;;;22.09;70.25;100689.41;681973;28;1222;-79
2023/08/15 01:12:56;;;;;;;8.32;6.00;;;;;;;22.08;70.00;100688.53;682759;28;1193;-79
2023/08/15 01:13:34;;;;;;;9.48;6.07;;;;;;;21.99;69.95;100678.09;686290;28;1252;-79
2023/08/15 01:14:02;;;;;;;9.38;6.10;;;;;;;21.96;70.00;100672.84;682623;28;1660;-79
2023/08/15 01:14:31;;;;;;;11.05;6.35;;;;;;;22.00;70.09;100682.53;682143;29;1221;-79
2023/08/15 01:15:09;;;;;;;9.85;6.20;;;;;;;22.06;70.16;100693.00;679657;29;1067;-79
2023/08/15 01:15:33;;;;;;;6.47;5.50;;;;;;;21.98;70.24;100684.31;676910;29;1054;-79
2023/08/15 01:15:54;;;;;;;7.78;5.75;;;;;;;21.96;70.23;100675.50;679142;29;1375;-79
2023/08/15 01:16:23;;;;;;;8.63;6.03;;;;;;;22.03;70.06;100680.66;682116;29;1382;-79
2023/08/15 01:16:48;;;;;;;10.32;5.80;;;;;;;21.95;70.15;100671.09;684471;28;1477;-79
2023/08/15 01:17:15;;;;;;;9.90;5.55;;;;;;;22.03;70.23;100685.09;687324;28;1646;-79
2023/08/15 01:17:48;;;;;;;7.38;5.50;;;;;;;22.01;70.28;100684.25;685594;28;1206;-79
2023/08/15 01:18:17;;;;;;;6.65;5.18;;;;;;;21.99;70.34;100688.72;676962;29;1418;-78
2023/08/15 01:18:44;;;;;;;6.78;5.25;;;;;;;22.00;70.18;100687.84;679071;29;1369;-79
2023/08/15 01:19:15;;;;;;;8.63;5.15;;;;;;;21.94;70.20;100677.31;682180;29;1049;-79
2023/08/15 01:19:42;;;;;;;9.55;5.22;;;;;;;21.88;70.18;100665.91;682138;29;1000;-79
2023/08/15 01:20:26;;;;;;;9.15;5.47;;;;;;;21.91;70.59;100676.50;684614;28;1225;-79
2023/08/15 01:20:49;;;;;;;10.30;5.50;;;;;;;21.89;70.53;100667.66;679558;29;1092;-79
2023/08/15 01:21:13;;;;;;;8.65;5.40;;;;;;;21.89;70.51;100667.66;679731;29;1284;-79
2023/08/15 01:21:39;;;;;;;8.55;5.60;;;;;;;21.94;70.65;100675.53;681109;29;1163;-79
2023/08/15 01:22:10;;;;;;;8.93;5.82;;;;;;;21.85;70.72;100657.13;679678;29;1067;-79
2023/08/15 01:22:34;;;;;;;8.75;6.00;;;;;;;21.93;70.65;100667.63;683834;28;1200;-79
2023/08/15 01:23:00;;;;;;;8.15;5.60;;;;;;;21.98;70.56;100676.34;684610;28;1149;-81
2023/08/15 01:23:27;;;;;;;9.50;5.70;;;;;;;21.90;70.96;100664.09;681118;28;1260;-79
2023/08/15 01:23:50;;;;;;;8.50;5.70;;;;;;;21.93;70.67;100663.16;682654;28;1521;-79
2023/08/15 01:24:10;;;;;;;8.63;5.72;;;;;;;21.92;70.78;100661.41;684916;28;1221;-79
2023/08/15 01:24:45;;;;;;;9.10;6.10;;;;;;;21.90;70.80;100657.91;684748;28;1472;-79
2023/08/15 01:25:06;;;;;;;8.40;6.03;;;;;;;21.93;70.89;100657.00;687586;28;1444;-79
2023/08/15 01:25:28;;;;;;;11.45;6.25;;;;;;;21.94;70.81;100664.91;677645;29;1223;-79
2023/08/15 01:25:49;;;;;;;10.90;5.93;;;;;;;21.89;70.92;100662.34;683147;28;1799;-78
2023/08/15 01:26:10;;;;;;;11.77;6.05;;;;;;;21.97;70.91;100670.16;679661;29;1210;-79
2023/08/15 01:26:31;;;;;;;9.50;5.95;;;;;;;21.90;70.82;100661.44;684887;28;1220;-78
2023/08/15 01:26:51;;;;;;;11.27;6.10;;;;;;;21.88;71.05;100659.75;684746;28;1092;-79
2023/08/15 01:27:12;;;;;;;10.10;5.90;;;;;;;21.90;70.74;100661.44;682197;29;1073;-79
2023/08/15 01:27:33;;;;;;;9.73;5.90;;;;;;;21.86;70.83;100653.56;684882;28;1313;-79
2023/08/15 01:27:54;;;;;;;8.80;5.95;;;;;;;21.88;70.87;100655.28;679168;29;1806;-80
2023/08/15 01:28:15;;;;;;;9.23;6.00;;;;;;;21.88;71.06;100662.41;679561;29;949;-79
2023/08/15 01:28:38;;;;;;;8.40;5.95;;;;;;;21.92;70.67;100672.03;679630;29;1115;-79
2023/08/15 01:28:59;;;;;;;7.65;5.70;;;;;;;21.84;70.76;100658.03;682087;28;1511;-79
2023/08/15 01:29:20;;;;;;;7.90;5.55;;;;;;;21.86;70.90;100664.19;684812;28;1784;-78
2023/08/15 01:29:41;;;;;;;7.70;5.35;;;;;;;21.77;70.76;100654.66;679357;29;1303;-78
2023/08/15 01:30:02;;;;;;;7.60;5.40;;;;;;;21.80;70.97;100659.88;682177;29;1403;-79
2023/08/15 01:30:23;;;;;;;7.47;5.80;;;;;;;21.80;70.86;100657.22;681844;29;1270;-79
2023/08/15 01:31:01;;;;;;;8.18;5.80;;;;;;;21.80;70.96;100662.53;682033;28;1175;-79
2023/08/15 01:31:44;;;;;;;8.82;5.80;;;;;;;21.81;70.81;100663.44;678570;29;997;-79
2023/08/15 01:32:48;;;;;;;9.10;6.20;;;;;;;21.85;70.81;100681.94;683707;28;1508;-79
2023/08/15 01:33:17;;;;;;;10.13;6.30;;;;;;;21.81;71.00;100672.25;685419;28;1124;-78
2023/08/15 01:33:55;;;;;;;10.57;6.00;;;;;;;21.79;70.87;100671.41;682845;28;1444;-79
2023/08/15 01:34:22;;;;;;;10.32;5.60;;;;;;;21.73;70.91;100655.59;682801;28;1247;-78
2023/08/15 01:35:05;;;;;;;10.00;5.40;;;;;;;21.72;71.10;100662.72;682529;28;1417;-79
2023/08/15 01:35:33;;;;;;;10.60;6.00;;;;;;;21.69;71.04;100662.75;685521;28;1523;-79
2023/08/15 01:36:02;;;;;;;10.25;6.20;;;;;;;21.73;71.07;100661.81;682384;28;1221;-79
2023/08/15 01:36:31;;;;;;;9.57;6.10;;;;;;;21.70;71.21;100656.53;683665;28;1178;-78
2023/08/15 01:36:57;;;;;;;9.27;5.93;;;;;;;21.71;71.33;100658.28;680027;28;1384;-79
2023/08/15 01:37:25;;;;;;;8.98;5.57;;;;;;;21.79;71.46;100671.41;682931;29;969;-79
2023/08/15 01:37:54;;;;;;;9.65;6.07;;;;;;;21.74;71.25;100662.66;681086;28;1577;-78
2023/08/15 01:38:38;;;;;;;8.50;6.13;;;;;;;21.69;71.33;100661.91;677434;29;1360;-78
2023/08/15 01:39:00;;;;;;;7.80;6.20;;;;;;;21.76;71.59;100676.81;684462;28;1788;-79
2023/08/15 01:39:27;;;;;;;7.72;6.47;;;;;;;21.78;71.43;100672.34;689358;28;1135;-79
2023/08/15 01:39:50;;;;;;;8.95;6.20;;;;;;;21.70;71.43;100658.34;685393;28;1452;-78
2023/08/15 01:40:16;;;;;;;9.25;5.88;;;;;;;21.68;71.61;100668.13;693163;28;1399;-83
2023/08/15 01:40:38;;;;;;;9.13;6.00;;;;;;;21.72;71.32;100678.66;687791;28;1235;-79
2023/08/15 01:41:01;;;;;;;8.10;6.00;;;;;;;21.71;71.48;100665.41;682524;28;1228;-79
2023/08/15 01:41:24;;;;;;;7.57;6.00;;;;;;;21.71;71.52;100678.69;681687;29;1150;-79
2023/08/15 01:41:46;;;;;;;8.40;6.10;;;;;;;21.67;71.54;100676.97;685413;28;1316;-79
2023/08/15 01:42:10;;;;;;;9.50;6.10;;;;;;;21.63;71.56;100670.84;682576;28;1119;-78
2023/08/15 01:42:32;;;;;;;9.50;5.90;;;;;;;21.57;71.80;100665.69;682491;28;1508;-79
2023/08/15 01:43:20;;;;;;;8.82;6.10;;;;;;;21.64;71.94;100678.78;685264;28;1410;-79
2023/08/15 01:43:44;;;;;;;9.32;6.05;;;;;;;21.60;71.78;100669.16;679827;29;1457;-79
2023/08/15 01:44:09;;;;;;;11.75;5.88;;;;;;;21.52;71.84;100663.13;680055;29;1021;-78
2023/08/15 01:44:31;;;;;;;11.80;5.80;;;;;;;21.58;71.91;100670.94;678354;29;1241;-79
2023/08/15 01:44:54;;;;;;;11.32;5.72;;;;;;;21.53;71.96;100653.34;679956;29;1320;-79
2023/08/15 01:45:15;;;;;;;8.75;5.88;;;;;;;21.59;71.69;100663.88;681187;28;1605;-79
2023/08/15 01:45:36;;;;;;;9.18;6.05;;;;;;;21.54;71.73;100656.00;684226;28;969;-79
2023/08/15 01:45:57;;;;;;;8.90;6.30;;;;;;;21.57;71.74;100657.72;682627;29;986;-79
2023/08/15 01:46:18;;;;;;;9.57;6.57;;;;;;;21.59;71.72;100664.72;680062;29;1411;-79
2023/08/15 01:46:39;;;;;;;10.38;6.72;;;;;;;21.59;72.11;100664.72;682500;28;1295;-79
2023/08/15 01:47:00;;;;;;;9.68;6.43;;;;;;;21.67;71.70;100674.31;682590;28;1319;-79
2023/08/15 01:47:22;;;;;;;8.23;6.00;;;;;;;21.62;71.91;100667.34;683236;28;1360;-78
2023/08/15 01:47:43;;;;;;;8.82;5.90;;;;;;;21.63;71.92;100665.53;685361;28;1154;-79
2023/08/15 01:48:04;;;;;;;8.90;5.93;;;;;;;21.62;71.60;100661.13;680120;29;1114;-79
2023/08/15 01:48:24;;;;;;;9.65;6.15;;;;;;;21.64;71.99;100667.31;684688;28;1193;-79
2023/08/15 01:48:46;;;;;;;10.60;6.20;;;;;;;21.58;71.86;100657.66;682285;29;1169;-78
2023/08/15 01:49:07;;;;;;;10.48;6.30;;;;;;;21.59;71.72;100666.50;685520;28;1198;-78
2023/08/15 01:49:27;;;;;;;9.53;6.10;;;;;;;21.58;71.56;100656.81;685352;28;1162;-79
2023/08/15 01:49:48;;;;;;;7.85;5.95;;;;;;;21.57;71.92;100655.91;684883;28;1821;-79
2023/08/15 01:50:09;;;;;;;6.20;5.45;;;;;;;21.57;71.75;100655.91;682888;28;1179;-79